sensor_id;sensor_type;location;lat;lon;timestamp;temperature;humidity
35700;DHT22;21818;51.078;12.108;2024-01-30T00:01:19;11.90;68.30
35700;DHT22;21818;51.078;12.108;2024-01-30T00:03:45;11.90;68.40
35700;DHT22;21818;51.078;12.108;2024-01-30T00:06:11;12.00;68.40
35700;DHT22;21818;51.078;12.108;2024-01-30T00:08:37;12.00;68.40
35700;DHT22;21818;51.078;12.108;2024-01-30T00:11:03;12.00;68.40
35700;DHT22;21818;51.078;12.108;2024-01-30T00:13:28;11.90;68.40
35700;DHT22;21818;51.078;12.108;2024-01-30T00:15:54;11.70;68.50
35700;DHT22;21818;51.078;12.108;2024-01-30T00:18:19;11.70;68.60
35700;DHT22;21818;51.078;12.108;2024-01-30T00:20:45;11.70;68.60
35700;DHT22;21818;51.078;12.108;2024-01-30T00:23:11;11.80;68.60
35700;DHT22;21818;51.078;12.108;2024-01-30T00:25:36;11.70;68.60
35700;DHT22;21818;51.078;12.108;2024-01-30T00:28:02;11.70;68.60
35700;DHT22;21818;51.078;12.108;2024-01-30T00:30:27;11.70;68.70
35700;DHT22;21818;51.078;12.108;2024-01-30T00:32:54;11.60;68.80
35700;DHT22;21818;51.078;12.108;2024-01-30T00:35:19;11.50;68.80
35700;DHT22;21818;51.078;12.108;2024-01-30T00:37:47;11.50;68.90
35700;DHT22;21818;51.078;12.108;2024-01-30T00:40:13;11.50;68.90
35700;DHT22;21818;51.078;12.108;2024-01-30T00:42:42;11.50;69.10
35700;DHT22;21818;51.078;12.108;2024-01-30T00:45:12;11.50;69.10
35700;DHT22;21818;51.078;12.108;2024-01-30T00:47:38;11.40;69.10
35700;DHT22;21818;51.078;12.108;2024-01-30T00:50:04;11.50;69.00
35700;DHT22;21818;51.078;12.108;2024-01-30T00:52:30;11.60;69.00
35700;DHT22;21818;51.078;12.108;2024-01-30T00:54:55;11.70;68.90
35700;DHT22;21818;51.078;12.108;2024-01-30T00:57:21;11.70;68.80
35700;DHT22;21818;51.078;12.108;2024-01-30T00:59:47;11.70;68.90
35700;DHT22;21818;51.078;12.108;2024-01-30T01:02:12;11.80;68.80
35700;DHT22;21818;51.078;12.108;2024-01-30T01:04:39;11.80;68.80
35700;DHT22;21818;51.078;12.108;2024-01-30T01:07:04;11.80;68.90
35700;DHT22;21818;51.078;12.108;2024-01-30T01:09:30;11.90;69.00
35700;DHT22;21818;51.078;12.108;2024-01-30T01:11:55;11.90;68.90
35700;DHT22;21818;51.078;12.108;2024-01-30T01:14:21;11.90;68.80
35700;DHT22;21818;51.078;12.108;2024-01-30T01:16:46;11.90;68.90
35700;DHT22;21818;51.078;12.108;2024-01-30T01:19:12;11.90;68.80
35700;DHT22;21818;51.078;12.108;2024-01-30T01:21:37;11.80;68.90
35700;DHT22;21818;51.078;12.108;2024-01-30T01:24:03;11.90;69.50
35700;DHT22;21818;51.078;12.108;2024-01-30T01:26:29;11.90;68.90
35700;DHT22;21818;51.078;12.108;2024-01-30T01:28:54;11.90;68.70
35700;DHT22;21818;51.078;12.108;2024-01-30T01:31:20;11.80;68.90
35700;DHT22;21818;51.078;12.108;2024-01-30T01:33:50;11.80;69.00
35700;DHT22;21818;51.078;12.108;2024-01-30T01:36:15;11.80;69.00
35700;DHT22;21818;51.078;12.108;2024-01-30T01:38:41;11.80;69.40
35700;DHT22;21818;51.078;12.108;2024-01-30T01:41:06;11.90;68.80
35700;DHT22;21818;51.078;12.108;2024-01-30T01:43:32;11.90;68.70
35700;DHT22;21818;51.078;12.108;2024-01-30T01:45:58;11.80;68.80
35700;DHT22;21818;51.078;12.108;2024-01-30T01:48:23;11.70;68.80
35700;DHT22;21818;51.078;12.108;2024-01-30T01:50:49;11.60;68.80
35700;DHT22;21818;51.078;12.108;2024-01-30T01:53:15;11.50;69.40
35700;DHT22;21818;51.078;12.108;2024-01-30T01:55:41;11.40;69.10
35700;DHT22;21818;51.078;12.108;2024-01-30T01:58:07;11.40;69.70
35700;DHT22;21818;51.078;12.108;2024-01-30T02:00:35;11.30;69.10
35700;DHT22;21818;51.078;12.108;2024-01-30T02:03:02;11.30;69.60
35700;DHT22;21818;51.078;12.108;2024-01-30T02:05:29;11.30;69.00
35700;DHT22;21818;51.078;12.108;2024-01-30T02:07:56;11.30;68.90
35700;DHT22;21818;51.078;12.108;2024-01-30T02:10:21;11.30;69.00
35700;DHT22;21818;51.078;12.108;2024-01-30T02:12:48;11.20;68.90
35700;DHT22;21818;51.078;12.108;2024-01-30T02:15:14;11.20;69.10
35700;DHT22;21818;51.078;12.108;2024-01-30T02:17:39;11.20;69.00
35700;DHT22;21818;51.078;12.108;2024-01-30T02:20:05;11.10;68.90
35700;DHT22;21818;51.078;12.108;2024-01-30T02:22:33;11.10;69.00
35700;DHT22;21818;51.078;12.108;2024-01-30T02:24:59;11.10;69.00
35700;DHT22;21818;51.078;12.108;2024-01-30T02:27:25;11.20;69.00
35700;DHT22;21818;51.078;12.108;2024-01-30T02:29:50;11.20;69.00
35700;DHT22;21818;51.078;12.108;2024-01-30T02:32:16;11.30;69.00
35700;DHT22;21818;51.078;12.108;2024-01-30T02:34:41;11.40;68.90
35700;DHT22;21818;51.078;12.108;2024-01-30T02:37:07;11.60;68.70
35700;DHT22;21818;51.078;12.108;2024-01-30T02:39:32;11.70;68.60
35700;DHT22;21818;51.078;12.108;2024-01-30T02:41:58;11.80;68.50
35700;DHT22;21818;51.078;12.108;2024-01-30T02:44:23;11.80;68.30
35700;DHT22;21818;51.078;12.108;2024-01-30T02:46:49;11.80;68.30
35700;DHT22;21818;51.078;12.108;2024-01-30T02:49:14;11.90;68.30
35700;DHT22;21818;51.078;12.108;2024-01-30T02:51:40;11.90;68.20
35700;DHT22;21818;51.078;12.108;2024-01-30T02:54:05;12.00;68.20
35700;DHT22;21818;51.078;12.108;2024-01-30T02:56:31;12.00;68.10
35700;DHT22;21818;51.078;12.108;2024-01-30T02:58:56;12.00;68.20
35700;DHT22;21818;51.078;12.108;2024-01-30T03:01:22;12.00;67.90
35700;DHT22;21818;51.078;12.108;2024-01-30T03:03:49;12.00;68.00
35700;DHT22;21818;51.078;12.108;2024-01-30T03:06:15;12.00;67.90
35700;DHT22;21818;51.078;12.108;2024-01-30T03:08:42;12.00;67.80
35700;DHT22;21818;51.078;12.108;2024-01-30T03:11:08;12.00;67.90
35700;DHT22;21818;51.078;12.108;2024-01-30T03:13:34;12.00;67.90
35700;DHT22;21818;51.078;12.108;2024-01-30T03:15:59;12.00;67.70
35700;DHT22;21818;51.078;12.108;2024-01-30T03:18:25;12.10;67.60
35700;DHT22;21818;51.078;12.108;2024-01-30T03:20:50;12.00;67.60
35700;DHT22;21818;51.078;12.108;2024-01-30T03:23:16;12.00;67.60
35700;DHT22;21818;51.078;12.108;2024-01-30T03:25:41;11.90;67.80
35700;DHT22;21818;51.078;12.108;2024-01-30T03:28:07;12.00;67.70
35700;DHT22;21818;51.078;12.108;2024-01-30T03:30:34;11.90;67.60
35700;DHT22;21818;51.078;12.108;2024-01-30T03:32:59;12.00;67.60
35700;DHT22;21818;51.078;12.108;2024-01-30T03:35:25;12.00;67.60
35700;DHT22;21818;51.078;12.108;2024-01-30T03:37:50;11.90;67.50
35700;DHT22;21818;51.078;12.108;2024-01-30T03:40:16;11.90;67.60
35700;DHT22;21818;51.078;12.108;2024-01-30T03:42:41;11.90;67.50
35700;DHT22;21818;51.078;12.108;2024-01-30T03:45:07;11.90;67.50
35700;DHT22;21818;51.078;12.108;2024-01-30T03:47:33;11.80;67.50
35700;DHT22;21818;51.078;12.108;2024-01-30T03:49:59;11.80;67.40
35700;DHT22;21818;51.078;12.108;2024-01-30T03:52:24;11.90;67.50
35700;DHT22;21818;51.078;12.108;2024-01-30T03:54:50;11.90;67.30
35700;DHT22;21818;51.078;12.108;2024-01-30T03:57:15;11.90;67.40
35700;DHT22;21818;51.078;12.108;2024-01-30T03:59:44;11.80;67.30
35700;DHT22;21818;51.078;12.108;2024-01-30T04:02:12;11.80;67.20
35700;DHT22;21818;51.078;12.108;2024-01-30T04:04:38;11.70;67.40
35700;DHT22;21818;51.078;12.108;2024-01-30T04:07:04;11.80;67.30
35700;DHT22;21818;51.078;12.108;2024-01-30T04:09:29;11.80;67.30
35700;DHT22;21818;51.078;12.108;2024-01-30T04:11:55;11.80;67.20
35700;DHT22;21818;51.078;12.108;2024-01-30T04:14:20;11.80;67.20
35700;DHT22;21818;51.078;12.108;2024-01-30T04:16:46;11.90;67.30
35700;DHT22;21818;51.078;12.108;2024-01-30T04:19:11;11.90;67.20
35700;DHT22;21818;51.078;12.108;2024-01-30T04:21:37;11.90;67.10
35700;DHT22;21818;51.078;12.108;2024-01-30T04:24:03;11.90;67.10
35700;DHT22;21818;51.078;12.108;2024-01-30T04:26:28;12.00;67.20
35700;DHT22;21818;51.078;12.108;2024-01-30T04:28:54;12.00;67.10
35700;DHT22;21818;51.078;12.108;2024-01-30T04:31:19;11.90;67.10
35700;DHT22;21818;51.078;12.108;2024-01-30T04:33:45;11.80;67.10
35700;DHT22;21818;51.078;12.108;2024-01-30T04:36:10;11.70;67.20
35700;DHT22;21818;51.078;12.108;2024-01-30T04:38:37;11.80;67.20
35700;DHT22;21818;51.078;12.108;2024-01-30T04:41:02;11.80;67.30
35700;DHT22;21818;51.078;12.108;2024-01-30T04:43:28;11.80;67.30
35700;DHT22;21818;51.078;12.108;2024-01-30T04:45:54;11.80;67.20
35700;DHT22;21818;51.078;12.108;2024-01-30T04:48:19;11.70;67.20
35700;DHT22;21818;51.078;12.108;2024-01-30T04:50:45;11.80;67.30
35700;DHT22;21818;51.078;12.108;2024-01-30T04:53:10;11.80;67.40
35700;DHT22;21818;51.078;12.108;2024-01-30T04:55:36;11.80;67.20
35700;DHT22;21818;51.078;12.108;2024-01-30T04:58:01;11.90;66.90
35700;DHT22;21818;51.078;12.108;2024-01-30T05:00:27;11.90;67.10
35700;DHT22;21818;51.078;12.108;2024-01-30T05:02:54;12.00;67.00
35700;DHT22;21818;51.078;12.108;2024-01-30T05:05:20;12.00;66.90
35700;DHT22;21818;51.078;12.108;2024-01-30T05:07:47;12.00;66.80
35700;DHT22;21818;51.078;12.108;2024-01-30T05:10:12;11.90;66.80
35700;DHT22;21818;51.078;12.108;2024-01-30T05:15:06;11.80;66.80
35700;DHT22;21818;51.078;12.108;2024-01-30T05:17:32;11.70;66.80
35700;DHT22;21818;51.078;12.108;2024-01-30T05:19:57;11.60;66.80
35700;DHT22;21818;51.078;12.108;2024-01-30T05:22:23;11.60;66.80
35700;DHT22;21818;51.078;12.108;2024-01-30T05:24:48;11.60;67.00
35700;DHT22;21818;51.078;12.108;2024-01-30T05:27:14;11.60;67.00
35700;DHT22;21818;51.078;12.108;2024-01-30T05:29:40;11.60;67.00
35700;DHT22;21818;51.078;12.108;2024-01-30T05:32:06;11.60;67.10
35700;DHT22;21818;51.078;12.108;2024-01-30T05:34:32;11.60;67.10
35700;DHT22;21818;51.078;12.108;2024-01-30T05:36:58;11.60;66.90
35700;DHT22;21818;51.078;12.108;2024-01-30T05:39:24;11.50;66.90
35700;DHT22;21818;51.078;12.108;2024-01-30T05:41:49;11.50;67.00
35700;DHT22;21818;51.078;12.108;2024-01-30T05:44:15;11.50;67.00
35700;DHT22;21818;51.078;12.108;2024-01-30T05:46:40;11.40;67.00
35700;DHT22;21818;51.078;12.108;2024-01-30T05:49:06;11.40;67.10
35700;DHT22;21818;51.078;12.108;2024-01-30T05:51:31;11.40;67.00
35700;DHT22;21818;51.078;12.108;2024-01-30T05:53:57;11.40;66.80
35700;DHT22;21818;51.078;12.108;2024-01-30T05:56:22;11.50;66.90
35700;DHT22;21818;51.078;12.108;2024-01-30T05:58:48;11.50;66.70
35700;DHT22;21818;51.078;12.108;2024-01-30T06:01:15;11.60;66.60
35700;DHT22;21818;51.078;12.108;2024-01-30T06:03:41;11.60;67.00
35700;DHT22;21818;51.078;12.108;2024-01-30T06:06:08;11.70;66.30
35700;DHT22;21818;51.078;12.108;2024-01-30T06:08:34;11.70;66.20
35700;DHT22;21818;51.078;12.108;2024-01-30T06:11:00;11.70;66.10
35700;DHT22;21818;51.078;12.108;2024-01-30T06:13:26;11.60;66.10
35700;DHT22;21818;51.078;12.108;2024-01-30T06:15:52;11.40;66.30
35700;DHT22;21818;51.078;12.108;2024-01-30T06:18:17;11.40;66.50
35700;DHT22;21818;51.078;12.108;2024-01-30T06:20:43;11.20;66.40
35700;DHT22;21818;51.078;12.108;2024-01-30T06:23:08;11.20;66.60
35700;DHT22;21818;51.078;12.108;2024-01-30T06:25:34;11.10;66.60
35700;DHT22;21818;51.078;12.108;2024-01-30T06:28:00;11.00;66.70
35700;DHT22;21818;51.078;12.108;2024-01-30T06:30:25;11.00;66.90
35700;DHT22;21818;51.078;12.108;2024-01-30T06:32:51;11.00;66.80
35700;DHT22;21818;51.078;12.108;2024-01-30T06:35:16;11.10;67.20
35700;DHT22;21818;51.078;12.108;2024-01-30T06:37:43;11.20;67.00
35700;DHT22;21818;51.078;12.108;2024-01-30T06:40:08;11.30;66.80
35700;DHT22;21818;51.078;12.108;2024-01-30T06:42:34;11.40;66.70
35700;DHT22;21818;51.078;12.108;2024-01-30T06:45:00;11.40;66.60
35700;DHT22;21818;51.078;12.108;2024-01-30T06:47:26;11.50;66.50
35700;DHT22;21818;51.078;12.108;2024-01-30T06:49:51;11.40;66.50
35700;DHT22;21818;51.078;12.108;2024-01-30T06:52:17;11.50;66.30
35700;DHT22;21818;51.078;12.108;2024-01-30T06:54:42;11.50;66.30
35700;DHT22;21818;51.078;12.108;2024-01-30T06:57:08;11.50;66.30
35700;DHT22;21818;51.078;12.108;2024-01-30T06:59:37;11.50;66.00
35700;DHT22;21818;51.078;12.108;2024-01-30T07:02:03;11.50;66.00
35700;DHT22;21818;51.078;12.108;2024-01-30T07:04:28;11.50;65.90
35700;DHT22;21818;51.078;12.108;2024-01-30T07:06:54;11.50;65.90
35700;DHT22;21818;51.078;12.108;2024-01-30T07:09:19;11.50;65.80
35700;DHT22;21818;51.078;12.108;2024-01-30T07:11:45;11.50;65.80
35700;DHT22;21818;51.078;12.108;2024-01-30T07:14:11;11.50;65.70
35700;DHT22;21818;51.078;12.108;2024-01-30T07:16:36;11.50;65.70
35700;DHT22;21818;51.078;12.108;2024-01-30T07:19:02;11.40;65.70
35700;DHT22;21818;51.078;12.108;2024-01-30T07:21:28;11.40;65.80
35700;DHT22;21818;51.078;12.108;2024-01-30T07:23:57;11.40;65.80
35700;DHT22;21818;51.078;12.108;2024-01-30T07:26:22;11.40;65.70
35700;DHT22;21818;51.078;12.108;2024-01-30T07:28:48;11.40;65.70
35700;DHT22;21818;51.078;12.108;2024-01-30T07:31:13;11.40;65.70
35700;DHT22;21818;51.078;12.108;2024-01-30T07:33:39;11.50;65.40
35700;DHT22;21818;51.078;12.108;2024-01-30T07:36:05;11.50;65.40
35700;DHT22;21818;51.078;12.108;2024-01-30T07:38:34;11.50;65.40
35700;DHT22;21818;51.078;12.108;2024-01-30T07:40:59;11.50;65.30
35700;DHT22;21818;51.078;12.108;2024-01-30T07:43:25;11.60;65.30
35700;DHT22;21818;51.078;12.108;2024-01-30T07:45:51;11.60;64.90
35700;DHT22;21818;51.078;12.108;2024-01-30T07:48:16;11.60;64.90
35700;DHT22;21818;51.078;12.108;2024-01-30T07:50:42;11.70;65.00
35700;DHT22;21818;51.078;12.108;2024-01-30T07:53:07;11.70;64.90
35700;DHT22;21818;51.078;12.108;2024-01-30T07:55:33;11.80;64.80
35700;DHT22;21818;51.078;12.108;2024-01-30T07:57:59;11.80;65.10
35700;DHT22;21818;51.078;12.108;2024-01-30T08:00:25;12.10;65.80
35700;DHT22;21818;51.078;12.108;2024-01-30T08:02:51;12.40;65.70
35700;DHT22;21818;51.078;12.108;2024-01-30T08:05:19;12.60;65.50
35700;DHT22;21818;51.078;12.108;2024-01-30T08:07:45;12.60;65.40
35700;DHT22;21818;51.078;12.108;2024-01-30T08:10:11;12.70;65.30
35700;DHT22;21818;51.078;12.108;2024-01-30T08:12:38;12.70;65.30
35700;DHT22;21818;51.078;12.108;2024-01-30T08:15:05;12.70;65.30
35700;DHT22;21818;51.078;12.108;2024-01-30T08:17:30;12.70;65.30
35700;DHT22;21818;51.078;12.108;2024-01-30T08:19:56;12.80;65.30
35700;DHT22;21818;51.078;12.108;2024-01-30T08:22:22;12.80;65.30
35700;DHT22;21818;51.078;12.108;2024-01-30T08:24:47;12.70;65.30
35700;DHT22;21818;51.078;12.108;2024-01-30T08:27:13;12.80;65.40
35700;DHT22;21818;51.078;12.108;2024-01-30T08:29:38;12.90;65.50
35700;DHT22;21818;51.078;12.108;2024-01-30T08:32:07;12.90;65.50
35700;DHT22;21818;51.078;12.108;2024-01-30T08:34:33;12.90;65.50
35700;DHT22;21818;51.078;12.108;2024-01-30T08:36:59;12.90;65.50
35700;DHT22;21818;51.078;12.108;2024-01-30T08:39:24;12.90;65.50
35700;DHT22;21818;51.078;12.108;2024-01-30T08:41:50;12.90;65.50
35700;DHT22;21818;51.078;12.108;2024-01-30T08:44:16;13.00;65.60
35700;DHT22;21818;51.078;12.108;2024-01-30T08:46:43;13.00;65.50
35700;DHT22;21818;51.078;12.108;2024-01-30T08:49:08;13.00;65.50
35700;DHT22;21818;51.078;12.108;2024-01-30T08:51:34;13.00;65.60
35700;DHT22;21818;51.078;12.108;2024-01-30T08:53:59;13.10;65.80
35700;DHT22;21818;51.078;12.108;2024-01-30T08:56:25;13.10;65.80
35700;DHT22;21818;51.078;12.108;2024-01-30T08:58:51;13.20;65.80
35700;DHT22;21818;51.078;12.108;2024-01-30T09:01:17;13.20;65.90
35700;DHT22;21818;51.078;12.108;2024-01-30T09:03:42;13.20;65.80
35700;DHT22;21818;51.078;12.108;2024-01-30T09:06:10;13.10;65.70
35700;DHT22;21818;51.078;12.108;2024-01-30T09:08:36;13.20;65.70
35700;DHT22;21818;51.078;12.108;2024-01-30T09:11:11;13.30;65.60
35700;DHT22;21818;51.078;12.108;2024-01-30T09:13:37;13.30;65.40
35700;DHT22;21818;51.078;12.108;2024-01-30T09:16:03;13.40;65.40
35700;DHT22;21818;51.078;12.108;2024-01-30T09:18:29;13.40;65.30
35700;DHT22;21818;51.078;12.108;2024-01-30T09:20:54;13.40;65.20
35700;DHT22;21818;51.078;12.108;2024-01-30T09:23:20;13.50;65.30
35700;DHT22;21818;51.078;12.108;2024-01-30T09:25:45;13.50;65.20
35700;DHT22;21818;51.078;12.108;2024-01-30T09:28:11;13.50;65.20
35700;DHT22;21818;51.078;12.108;2024-01-30T09:30:36;13.50;65.20
35700;DHT22;21818;51.078;12.108;2024-01-30T09:33:03;13.50;65.20
35700;DHT22;21818;51.078;12.108;2024-01-30T09:35:29;13.50;65.20
35700;DHT22;21818;51.078;12.108;2024-01-30T09:37:55;13.50;65.10
35700;DHT22;21818;51.078;12.108;2024-01-30T09:40:22;13.50;65.10
35700;DHT22;21818;51.078;12.108;2024-01-30T09:42:50;13.50;65.20
35700;DHT22;21818;51.078;12.108;2024-01-30T09:45:18;13.50;65.10
35700;DHT22;21818;51.078;12.108;2024-01-30T09:47:44;13.60;65.10
35700;DHT22;21818;51.078;12.108;2024-01-30T09:50:11;13.60;65.10
35700;DHT22;21818;51.078;12.108;2024-01-30T09:52:37;13.50;65.10
35700;DHT22;21818;51.078;12.108;2024-01-30T09:55:03;13.50;65.10
35700;DHT22;21818;51.078;12.108;2024-01-30T09:57:29;13.60;65.10
35700;DHT22;21818;51.078;12.108;2024-01-30T09:59:55;13.50;65.10
35700;DHT22;21818;51.078;12.108;2024-01-30T10:02:21;13.50;65.10
35700;DHT22;21818;51.078;12.108;2024-01-30T10:04:48;13.50;65.20
35700;DHT22;21818;51.078;12.108;2024-01-30T10:07:15;13.40;65.20
35700;DHT22;21818;51.078;12.108;2024-01-30T10:09:40;13.40;65.40
35700;DHT22;21818;51.078;12.108;2024-01-30T10:12:06;13.40;65.40
35700;DHT22;21818;51.078;12.108;2024-01-30T10:14:33;13.40;65.50
35700;DHT22;21818;51.078;12.108;2024-01-30T10:16:59;13.40;65.50
35700;DHT22;21818;51.078;12.108;2024-01-30T10:19:24;13.30;65.50
35700;DHT22;21818;51.078;12.108;2024-01-30T10:21:50;13.40;65.60
35700;DHT22;21818;51.078;12.108;2024-01-30T10:24:15;13.40;65.60
35700;DHT22;21818;51.078;12.108;2024-01-30T10:26:44;13.40;65.60
35700;DHT22;21818;51.078;12.108;2024-01-30T10:29:09;13.40;65.60
35700;DHT22;21818;51.078;12.108;2024-01-30T10:31:35;13.50;65.60
35700;DHT22;21818;51.078;12.108;2024-01-30T10:34:00;13.40;65.60
35700;DHT22;21818;51.078;12.108;2024-01-30T10:36:28;13.40;65.50
35700;DHT22;21818;51.078;12.108;2024-01-30T10:38:56;13.50;65.60
35700;DHT22;21818;51.078;12.108;2024-01-30T10:41:27;13.50;65.60
35700;DHT22;21818;51.078;12.108;2024-01-30T10:44:08;13.50;65.60
35700;DHT22;21818;51.078;12.108;2024-01-30T10:46:35;13.50;65.70
35700;DHT22;21818;51.078;12.108;2024-01-30T10:49:02;13.50;65.70
35700;DHT22;21818;51.078;12.108;2024-01-30T10:51:29;13.50;65.70
35700;DHT22;21818;51.078;12.108;2024-01-30T10:53:57;13.50;65.70
35700;DHT22;21818;51.078;12.108;2024-01-30T10:56:23;13.50;66.30
35700;DHT22;21818;51.078;12.108;2024-01-30T10:58:53;13.60;65.80
35700;DHT22;21818;51.078;12.108;2024-01-30T11:01:20;13.60;65.80
35700;DHT22;21818;51.078;12.108;2024-01-30T11:03:51;13.60;65.70
35700;DHT22;21818;51.078;12.108;2024-01-30T11:06:17;13.70;65.80
35700;DHT22;21818;51.078;12.108;2024-01-30T11:08:45;13.70;65.80
35700;DHT22;21818;51.078;12.108;2024-01-30T11:11:11;13.70;65.80
35700;DHT22;21818;51.078;12.108;2024-01-30T11:13:37;13.70;65.80
35700;DHT22;21818;51.078;12.108;2024-01-30T11:16:06;13.70;65.90
35700;DHT22;21818;51.078;12.108;2024-01-30T11:18:32;13.70;65.90
35700;DHT22;21818;51.078;12.108;2024-01-30T11:20:59;13.70;65.90
35700;DHT22;21818;51.078;12.108;2024-01-30T11:23:27;13.80;66.00
35700;DHT22;21818;51.078;12.108;2024-01-30T11:25:54;13.80;66.00
35700;DHT22;21818;51.078;12.108;2024-01-30T11:28:21;13.90;65.90
35700;DHT22;21818;51.078;12.108;2024-01-30T11:30:47;13.90;65.90
35700;DHT22;21818;51.078;12.108;2024-01-30T11:33:27;13.90;65.80
35700;DHT22;21818;51.078;12.108;2024-01-30T11:35:53;14.00;65.90
35700;DHT22;21818;51.078;12.108;2024-01-30T11:38:19;14.00;65.90
35700;DHT22;21818;51.078;12.108;2024-01-30T11:40:46;14.00;65.90
35700;DHT22;21818;51.078;12.108;2024-01-30T11:43:11;14.00;65.90
35700;DHT22;21818;51.078;12.108;2024-01-30T11:45:38;14.00;65.80
35700;DHT22;21818;51.078;12.108;2024-01-30T11:48:05;14.10;65.80
35700;DHT22;21818;51.078;12.108;2024-01-30T11:50:32;14.10;65.70
35700;DHT22;21818;51.078;12.108;2024-01-30T11:52:59;14.20;65.70
35700;DHT22;21818;51.078;12.108;2024-01-30T11:55:24;14.20;65.60
35700;DHT22;21818;51.078;12.108;2024-01-30T11:57:50;14.30;66.20
35700;DHT22;21818;51.078;12.108;2024-01-30T12:00:17;14.30;65.60
35700;DHT22;21818;51.078;12.108;2024-01-30T12:02:44;14.30;65.60
35700;DHT22;21818;51.078;12.108;2024-01-30T12:05:09;14.30;65.60
35700;DHT22;21818;51.078;12.108;2024-01-30T12:07:35;14.30;65.60
35700;DHT22;21818;51.078;12.108;2024-01-30T12:10:02;14.40;65.70
35700;DHT22;21818;51.078;12.108;2024-01-30T12:12:29;14.40;65.60
35700;DHT22;21818;51.078;12.108;2024-01-30T12:14:55;14.40;65.60
35700;DHT22;21818;51.078;12.108;2024-01-30T12:17:31;14.40;65.60
35700;DHT22;21818;51.078;12.108;2024-01-30T12:22:43;14.40;65.50
35700;DHT22;21818;51.078;12.108;2024-01-30T12:25:13;14.40;65.50
35700;DHT22;21818;51.078;12.108;2024-01-30T12:27:39;14.50;65.40
35700;DHT22;21818;51.078;12.108;2024-01-30T12:30:08;14.60;65.30
35700;DHT22;21818;51.078;12.108;2024-01-30T12:32:45;14.60;65.20
35700;DHT22;21818;51.078;12.108;2024-01-30T12:35:12;14.70;65.20
35700;DHT22;21818;51.078;12.108;2024-01-30T12:37:39;14.80;65.20
35700;DHT22;21818;51.078;12.108;2024-01-30T12:40:05;14.90;65.00
35700;DHT22;21818;51.078;12.108;2024-01-30T12:42:34;15.00;64.90
35700;DHT22;21818;51.078;12.108;2024-01-30T12:45:01;15.00;64.80
35700;DHT22;21818;51.078;12.108;2024-01-30T12:47:27;15.00;64.70
35700;DHT22;21818;51.078;12.108;2024-01-30T12:49:53;15.10;64.70
35700;DHT22;21818;51.078;12.108;2024-01-30T12:52:19;15.10;64.70
35700;DHT22;21818;51.078;12.108;2024-01-30T12:54:45;15.20;64.60
35700;DHT22;21818;51.078;12.108;2024-01-30T12:57:11;15.20;64.60
35700;DHT22;21818;51.078;12.108;2024-01-30T12:59:36;15.20;64.60
35700;DHT22;21818;51.078;12.108;2024-01-30T13:02:02;15.30;64.50
35700;DHT22;21818;51.078;12.108;2024-01-30T13:04:29;15.30;64.40
35700;DHT22;21818;51.078;12.108;2024-01-30T13:06:54;15.40;64.40
35700;DHT22;21818;51.078;12.108;2024-01-30T13:09:20;15.30;64.40
35700;DHT22;21818;51.078;12.108;2024-01-30T13:11:46;15.40;64.50
35700;DHT22;21818;51.078;12.108;2024-01-30T13:14:12;15.40;64.40
35700;DHT22;21818;51.078;12.108;2024-01-30T13:16:38;15.40;64.40
35700;DHT22;21818;51.078;12.108;2024-01-30T13:19:03;15.40;64.40
35700;DHT22;21818;51.078;12.108;2024-01-30T13:21:29;15.40;64.40
35700;DHT22;21818;51.078;12.108;2024-01-30T13:23:55;15.40;64.40
35700;DHT22;21818;51.078;12.108;2024-01-30T13:26:21;15.40;64.40
35700;DHT22;21818;51.078;12.108;2024-01-30T13:28:47;15.40;64.40
35700;DHT22;21818;51.078;12.108;2024-01-30T13:31:14;15.50;64.40
35700;DHT22;21818;51.078;12.108;2024-01-30T13:33:40;15.50;64.50
35700;DHT22;21818;51.078;12.108;2024-01-30T13:36:07;15.50;64.40
35700;DHT22;21818;51.078;12.108;2024-01-30T13:38:32;15.50;64.30
35700;DHT22;21818;51.078;12.108;2024-01-30T13:40:59;15.60;64.30
35700;DHT22;21818;51.078;12.108;2024-01-30T13:43:24;15.60;64.20
35700;DHT22;21818;51.078;12.108;2024-01-30T13:45:50;15.60;64.30
35700;DHT22;21818;51.078;12.108;2024-01-30T13:48:15;15.60;64.40
35700;DHT22;21818;51.078;12.108;2024-01-30T13:50:41;15.50;64.40
35700;DHT22;21818;51.078;12.108;2024-01-30T13:53:07;15.50;64.50
35700;DHT22;21818;51.078;12.108;2024-01-30T13:55:33;15.40;64.60
35700;DHT22;21818;51.078;12.108;2024-01-30T13:57:59;15.40;64.50
35700;DHT22;21818;51.078;12.108;2024-01-30T14:00:26;15.50;64.60
35700;DHT22;21818;51.078;12.108;2024-01-30T14:02:52;15.50;64.70
35700;DHT22;21818;51.078;12.108;2024-01-30T14:05:20;15.40;64.70
35700;DHT22;21818;51.078;12.108;2024-01-30T14:07:46;15.40;64.70
35700;DHT22;21818;51.078;12.108;2024-01-30T14:10:12;15.30;64.80
35700;DHT22;21818;51.078;12.108;2024-01-30T14:12:38;15.30;65.30
35700;DHT22;21818;51.078;12.108;2024-01-30T14:15:03;15.20;65.00
35700;DHT22;21818;51.078;12.108;2024-01-30T14:17:29;15.20;65.10
35700;DHT22;21818;51.078;12.108;2024-01-30T14:19:56;15.20;65.10
35700;DHT22;21818;51.078;12.108;2024-01-30T14:22:22;15.20;65.20
35700;DHT22;21818;51.078;12.108;2024-01-30T14:24:47;15.10;65.20
35700;DHT22;21818;51.078;12.108;2024-01-30T14:27:13;15.10;65.30
35700;DHT22;21818;51.078;12.108;2024-01-30T14:29:38;15.10;65.40
35700;DHT22;21818;51.078;12.108;2024-01-30T14:32:04;15.10;65.40
35700;DHT22;21818;51.078;12.108;2024-01-30T14:34:30;15.00;65.40
35700;DHT22;21818;51.078;12.108;2024-01-30T14:36:56;15.00;65.40
35700;DHT22;21818;51.078;12.108;2024-01-30T14:39:22;15.00;65.50
35700;DHT22;21818;51.078;12.108;2024-01-30T14:41:47;15.00;65.60
35700;DHT22;21818;51.078;12.108;2024-01-30T14:44:13;15.00;65.60
35700;DHT22;21818;51.078;12.108;2024-01-30T14:46:39;14.90;65.60
35700;DHT22;21818;51.078;12.108;2024-01-30T14:49:05;14.90;65.70
35700;DHT22;21818;51.078;12.108;2024-01-30T14:51:31;14.90;65.80
35700;DHT22;21818;51.078;12.108;2024-01-30T14:53:58;14.90;65.80
35700;DHT22;21818;51.078;12.108;2024-01-30T14:56:24;14.90;65.80
35700;DHT22;21818;51.078;12.108;2024-01-30T14:58:50;14.90;65.80
35700;DHT22;21818;51.078;12.108;2024-01-30T15:01:15;14.90;65.80
35700;DHT22;21818;51.078;12.108;2024-01-30T15:03:41;14.90;65.90
35700;DHT22;21818;51.078;12.108;2024-01-30T15:06:08;14.90;65.90
35700;DHT22;21818;51.078;12.108;2024-01-30T15:08:34;14.80;65.90
35700;DHT22;21818;51.078;12.108;2024-01-30T15:10:59;14.80;66.00
35700;DHT22;21818;51.078;12.108;2024-01-30T15:13:25;14.80;66.10